sensor_id;sensor_type;location;lat;lon;timestamp;pressure;altitude;pressure_sealevel;temperature;humidity
5356;BME280;70449;52.486;13.386;2023-07-30T00:00:00;100191.47;;;21.24;100.00
5356;BME280;70449;52.486;13.386;2023-07-30T00:02:28;100192.34;;;21.32;100.00
5356;BME280;70449;52.486;13.386;2023-07-30T00:04:55;100189.56;;;21.32;100.00
5356;BME280;70449;52.486;13.386;2023-07-30T00:07:24;100191.84;;;21.23;100.00
5356;BME280;70449;52.486;13.386;2023-07-30T00:09:51;100186.94;;;21.43;100.00
5356;BME280;70449;52.486;13.386;2023-07-30T00:12:19;100187.50;;;21.25;100.00
5356;BME280;70449;52.486;13.386;2023-07-30T00:14:46;100185.91;;;21.24;100.00
5356;BME280;70449;52.486;13.386;2023-07-30T00:17:15;100185.03;;;21.20;100.00
5356;BME280;70449;52.486;13.386;2023-07-30T00:19:42;100189.69;;;21.09;100.00
5356;BME280;70449;52.486;13.386;2023-07-30T00:22:09;100186.59;;;20.88;100.00
5356;BME280;70449;52.486;13.386;2023-07-30T00:24:38;100187.13;;;20.97;100.00
5356;BME280;70449;52.486;13.386;2023-07-30T00:27:06;100181.78;;;21.15;100.00
5356;BME280;70449;52.486;13.386;2023-07-30T00:29:33;100180.00;;;20.99;100.00
5356;BME280;70449;52.486;13.386;2023-07-30T00:32:00;100174.81;;;21.32;100.00
5356;BME280;70449;52.486;13.386;2023-07-30T00:34:27;100172.22;;;21.12;100.00
5356;BME280;70449;52.486;13.386;2023-07-30T00:36:55;100174.94;;;21.39;100.00
5356;BME280;70449;52.486;13.386;2023-07-30T00:39:22;100185.97;;;21.32;100.00
5356;BME280;70449;52.486;13.386;2023-07-30T00:41:52;100174.19;;;20.81;100.00
5356;BME280;70449;52.486;13.386;2023-07-30T00:44:19;100177.91;;;20.63;100.00
5356;BME280;70449;52.486;13.386;2023-07-30T00:46:46;100164.13;;;20.50;100.00
5356;BME280;70449;52.486;13.386;2023-07-30T00:49:13;100156.72;;;20.84;100.00
5356;BME280;70449;52.486;13.386;2023-07-30T00:51:41;100154.56;;;21.01;100.00
5356;BME280;70449;52.486;13.386;2023-07-30T00:54:09;100138.84;;;21.19;100.00
5356;BME280;70449;52.486;13.386;2023-07-30T00:56:37;100142.06;;;20.91;100.00
5356;BME280;70449;52.486;13.386;2023-07-30T00:59:06;100143.31;;;20.94;100.00
5356;BME280;70449;52.486;13.386;2023-07-30T01:01:34;100137.16;;;21.11;100.00
5356;BME280;70449;52.486;13.386;2023-07-30T01:04:04;100142.06;;;21.21;100.00
5356;BME280;70449;52.486;13.386;2023-07-30T01:06:31;100145.09;;;21.09;100.00
5356;BME280;70449;52.486;13.386;2023-07-30T01:08:59;100158.09;;;20.98;100.00
5356;BME280;70449;52.486;13.386;2023-07-30T01:11:30;100163.28;;;20.69;100.00
5356;BME280;70449;52.486;13.386;2023-07-30T01:13:59;100165.88;;;21.15;100.00
5356;BME280;70449;52.486;13.386;2023-07-30T01:16:29;100162.94;;;21.04;100.00
5356;BME280;70449;52.486;13.386;2023-07-30T01:18:56;100173.88;;;21.20;100.00
5356;BME280;70449;52.486;13.386;2023-07-30T01:21:26;100176.31;;;20.92;100.00
5356;BME280;70449;52.486;13.386;2023-07-30T01:23:53;100169.41;;;20.82;100.00
5356;BME280;70449;52.486;13.386;2023-07-30T01:26:28;100178.91;;;20.77;100.00
5356;BME280;70449;52.486;13.386;2023-07-30T01:29:00;100170.56;;;21.08;100.00
5356;BME280;70449;52.486;13.386;2023-07-30T01:31:30;100170.13;;;21.36;100.00
5356;BME280;70449;52.486;13.386;2023-07-30T01:34:00;100175.41;;;21.44;100.00
5356;BME280;70449;52.486;13.386;2023-07-30T01:36:30;100164.44;;;21.28;100.00
5356;BME280;70449;52.486;13.386;2023-07-30T01:38:59;100186.75;;;20.68;100.00
5356;BME280;70449;52.486;13.386;2023-07-30T01:41:27;100195.41;;;20.63;100.00
5356;BME280;70449;52.486;13.386;2023-07-30T01:43:54;100198.06;;;20.82;100.00
5356;BME280;70449;52.486;13.386;2023-07-30T01:46:22;100203.75;;;20.63;100.00
5356;BME280;70449;52.486;13.386;2023-07-30T01:48:49;100195.75;;;20.88;100.00
5356;BME280;70449;52.486;13.386;2023-07-30T01:51:16;100194.28;;;20.68;100.00
5356;BME280;70449;52.486;13.386;2023-07-30T01:53:48;100198.38;;;20.51;100.00
5356;BME280;70449;52.486;13.386;2023-07-30T01:56:15;100193.31;;;20.83;100.00
5356;BME280;70449;52.486;13.386;2023-07-30T01:58:42;100196.47;;;20.81;100.00
5356;BME280;70449;52.486;13.386;2023-07-30T02:01:09;100194.13;;;20.83;100.00
5356;BME280;70449;52.486;13.386;2023-07-30T02:03:37;100188.38;;;21.29;100.00
5356;BME280;70449;52.486;13.386;2023-07-30T02:06:04;100196.53;;;21.45;100.00
5356;BME280;70449;52.486;13.386;2023-07-30T02:08:32;100195.13;;;21.62;100.00
5356;BME280;70449;52.486;13.386;2023-07-30T02:11:00;100197.88;;;21.28;100.00
5356;BME280;70449;52.486;13.386;2023-07-30T02:13:27;100202.69;;;20.71;100.00
5356;BME280;70449;52.486;13.386;2023-07-30T02:15:54;100205.28;;;20.11;100.00
5356;BME280;70449;52.486;13.386;2023-07-30T02:18:22;100190.84;;;21.08;100.00
5356;BME280;70449;52.486;13.386;2023-07-30T02:20:49;100195.16;;;21.02;100.00
5356;BME280;70449;52.486;13.386;2023-07-30T02:23:16;100201.44;;;20.95;100.00
5356;BME280;70449;52.486;13.386;2023-07-30T02:25:43;100202.97;;;20.39;100.00
5356;BME280;70449;52.486;13.386;2023-07-30T02:28:12;100207.44;;;20.71;100.00
5356;BME280;70449;52.486;13.386;2023-07-30T02:30:39;100206.50;;;20.59;100.00
5356;BME280;70449;52.486;13.386;2023-07-30T02:33:07;100202.72;;;20.25;100.00
5356;BME280;70449;52.486;13.386;2023-07-30T02:35:34;100207.00;;;20.42;100.00
5356;BME280;70449;52.486;13.386;2023-07-30T02:38:01;100209.78;;;20.65;100.00
5356;BME280;70449;52.486;13.386;2023-07-30T02:40:29;100206.44;;;20.56;100.00
5356;BME280;70449;52.486;13.386;2023-07-30T02:42:56;100207.00;;;20.42;100.00
5356;BME280;70449;52.486;13.386;2023-07-30T02:45:25;100215.47;;;20.26;100.00
5356;BME280;70449;52.486;13.386;2023-07-30T02:47:53;100223.16;;;20.10;100.00
5356;BME280;70449;52.486;13.386;2023-07-30T02:50:20;100216.94;;;20.20;100.00
5356;BME280;70449;52.486;13.386;2023-07-30T02:52:47;100227.09;;;20.09;100.00
5356;BME280;70449;52.486;13.386;2023-07-30T02:55:14;100218.22;;;20.49;100.00
5356;BME280;70449;52.486;13.386;2023-07-30T02:57:42;100222.81;;;20.15;100.00
5356;BME280;70449;52.486;13.386;2023-07-30T03:00:10;100212.44;;;20.58;100.00
5356;BME280;70449;52.486;13.386;2023-07-30T03:02:39;100220.78;;;20.12;100.00
5356;BME280;70449;52.486;13.386;2023-07-30T03:05:07;100225.34;;;20.24;100.00
5356;BME280;70449;52.486;13.386;2023-07-30T03:07:35;100217.75;;;20.21;100.00
5356;BME280;70449;52.486;13.386;2023-07-30T03:10:03;100213.50;;;20.04;100.00
5356;BME280;70449;52.486;13.386;2023-07-30T03:12:30;100210.31;;;20.51;100.00
5356;BME280;70449;52.486;13.386;2023-07-30T03:14:57;100211.00;;;20.45;100.00
5356;BME280;70449;52.486;13.386;2023-07-30T03:17:25;100221.78;;;20.23;100.00
5356;BME280;70449;52.486;13.386;2023-07-30T03:19:54;100218.78;;;20.35;100.00
5356;BME280;70449;52.486;13.386;2023-07-30T03:22:21;100223.22;;;20.13;100.00
5356;BME280;70449;52.486;13.386;2023-07-30T03:24:50;100226.16;;;19.78;100.00
5356;BME280;70449;52.486;13.386;2023-07-30T03:27:17;100225.22;;;19.93;100.00
5356;BME280;70449;52.486;13.386;2023-07-30T03:29:44;100229.00;;;20.05;100.00
5356;BME280;70449;52.486;13.386;2023-07-30T03:32:11;100236.28;;;19.90;100.00
5356;BME280;70449;52.486;13.386;2023-07-30T03:34:38;100236.97;;;19.83;100.00
5356;BME280;70449;52.486;13.386;2023-07-30T03:37:07;100235.63;;;19.77;100.00
5356;BME280;70449;52.486;13.386;2023-07-30T03:39:34;100232.66;;;20.09;100.00
5356;BME280;70449;52.486;13.386;2023-07-30T03:42:02;100236.63;;;20.08;100.00
5356;BME280;70449;52.486;13.386;2023-07-30T03:44:29;100239.13;;;19.93;100.00
5356;BME280;70449;52.486;13.386;2023-07-30T03:46:57;100239.31;;;19.81;100.00
5356;BME280;70449;52.486;13.386;2023-07-30T03:49:24;100246.63;;;19.89;100.00
5356;BME280;70449;52.486;13.386;2023-07-30T03:51:52;100253.44;;;19.73;100.00
5356;BME280;70449;52.486;13.386;2023-07-30T03:54:21;100242.75;;;19.55;100.00
5356;BME280;70449;52.486;13.386;2023-07-30T03:56:48;100243.31;;;19.45;100.00
5356;BME280;70449;52.486;13.386;2023-07-30T03:59:15;100247.03;;;19.14;100.00
5356;BME280;70449;52.486;13.386;2023-07-30T04:01:42;100250.97;;;19.13;100.00
5356;BME280;70449;52.486;13.386;2023-07-30T04:04:09;100253.00;;;19.16;100.00
5356;BME280;70449;52.486;13.386;2023-07-30T04:06:37;100242.00;;;19.19;100.00
5356;BME280;70449;52.486;13.386;2023-07-30T04:09:04;100255.25;;;19.45;100.00
5356;BME280;70449;52.486;13.386;2023-07-30T04:11:32;100257.00;;;19.34;100.00
5356;BME280;70449;52.486;13.386;2023-07-30T04:14:00;100258.97;;;19.34;100.00
5356;BME280;70449;52.486;13.386;2023-07-30T04:16:27;100256.00;;;19.42;100.00
5356;BME280;70449;52.486;13.386;2023-07-30T04:18:54;100265.47;;;19.41;100.00
5356;BME280;70449;52.486;13.386;2023-07-30T04:21:21;100266.28;;;19.42;100.00
5356;BME280;70449;52.486;13.386;2023-07-30T04:23:48;100265.47;;;19.41;100.00
5356;BME280;70449;52.486;13.386;2023-07-30T04:26:16;100257.22;;;19.64;100.00
5356;BME280;70449;52.486;13.386;2023-07-30T04:28:45;100259.78;;;19.34;100.00
5356;BME280;70449;52.486;13.386;2023-07-30T04:31:12;100248.38;;;19.59;100.00
5356;BME280;70449;52.486;13.386;2023-07-30T04:33:39;100254.53;;;19.48;100.00
5356;BME280;70449;52.486;13.386;2023-07-30T04:36:06;100266.38;;;19.45;100.00
5356;BME280;70449;52.486;13.386;2023-07-30T04:38:34;100264.31;;;19.62;100.00
5356;BME280;70449;52.486;13.386;2023-07-30T04:41:02;100265.53;;;19.80;100.00
5356;BME280;70449;52.486;13.386;2023-07-30T04:43:29;100269.97;;;19.85;100.00
5356;BME280;70449;52.486;13.386;2023-07-30T04:45:58;100272.16;;;20.18;100.00
5356;BME280;70449;52.486;13.386;2023-07-30T04:48:25;100266.78;;;20.06;100.00
5356;BME280;70449;52.486;13.386;2023-07-30T04:50:52;100262.44;;;19.85;100.00
5356;BME280;70449;52.486;13.386;2023-07-30T04:53:19;100265.34;;;19.92;100.00
5356;BME280;70449;52.486;13.386;2023-07-30T04:55:47;100268.50;;;20.33;100.00
5356;BME280;70449;52.486;13.386;2023-07-30T04:58:14;100270.38;;;20.29;100.00
5356;BME280;70449;52.486;13.386;2023-07-30T05:00:41;100266.56;;;20.37;100.00
5356;BME280;70449;52.486;13.386;2023-07-30T05:03:13;100261.94;;;20.45;100.00
5356;BME280;70449;52.486;13.386;2023-07-30T05:05:40;100266.44;;;20.30;100.00
5356;BME280;70449;52.486;13.386;2023-07-30T05:08:07;100265.56;;;20.72;100.00
5356;BME280;70449;52.486;13.386;2023-07-30T05:10:34;100260.00;;;20.72;100.00
5356;BME280;70449;52.486;13.386;2023-07-30T05:13:02;100259.63;;;20.51;100.00
5356;BME280;70449;52.486;13.386;2023-07-30T05:15:29;100270.63;;;20.44;100.00
5356;BME280;70449;52.486;13.386;2023-07-30T05:17:56;100278.06;;;20.59;100.00
5356;BME280;70449;52.486;13.386;2023-07-30T05:20:25;100259.00;;;20.38;100.00
5356;BME280;70449;52.486;13.386;2023-07-30T05:22:52;100269.81;;;20.89;100.00
5356;BME280;70449;52.486;13.386;2023-07-30T05:25:19;100262.41;;;20.51;100.00
5356;BME280;70449;52.486;13.386;2023-07-30T05:27:46;100261.63;;;20.27;100.00
5356;BME280;70449;52.486;13.386;2023-07-30T05:30:14;100269.22;;;20.07;100.00
5356;BME280;70449;52.486;13.386;2023-07-30T05:32:41;100265.19;;;20.51;100.00
5356;BME280;70449;52.486;13.386;2023-07-30T05:35:08;100266.88;;;20.55;100.00
5356;BME280;70449;52.486;13.386;2023-07-30T05:37:37;100265.75;;;20.37;100.00
5356;BME280;70449;52.486;13.386;2023-07-30T05:40:06;100269.03;;;20.89;100.00
5356;BME280;70449;52.486;13.386;2023-07-30T05:42:33;100263.97;;;20.48;100.00
5356;BME280;70449;52.486;13.386;2023-07-30T05:45:01;100268.34;;;20.99;100.00
5356;BME280;70449;52.486;13.386;2023-07-30T05:47:28;100268.84;;;21.35;100.00
5356;BME280;70449;52.486;13.386;2023-07-30T05:49:55;100276.41;;;21.04;100.00
5356;BME280;70449;52.486;13.386;2023-07-30T05:52:22;100272.66;;;21.49;100.00
5356;BME280;70449;52.486;13.386;2023-07-30T05:54:51;100270.16;;;21.41;100.00
5356;BME280;70449;52.486;13.386;2023-07-30T05:57:18;100264.47;;;21.34;100.00
5356;BME280;70449;52.486;13.386;2023-07-30T05:59:45;100263.28;;;21.35;100.00
5356;BME280;70449;52.486;13.386;2023-07-30T06:02:12;100265.25;;;21.64;100.00
5356;BME280;70449;52.486;13.386;2023-07-30T06:04:40;100262.16;;;21.69;100.00
5356;BME280;70449;52.486;13.386;2023-07-30T06:07:07;100266.84;;;22.33;100.00
5356;BME280;70449;52.486;13.386;2023-07-30T06:09:34;100268.13;;;22.05;100.00
5356;BME280;70449;52.486;13.386;2023-07-30T06:12:03;100256.56;;;22.03;100.00
5356;BME280;70449;52.486;13.386;2023-07-30T06:14:30;100262.34;;;21.87;100.00
5356;BME280;70449;52.486;13.386;2023-07-30T06:16:58;100268.63;;;22.14;100.00
5356;BME280;70449;52.486;13.386;2023-07-30T06:19:25;100266.94;;;22.06;100.00
5356;BME280;70449;52.486;13.386;2023-07-30T06:21:53;100259.94;;;21.86;100.00
5356;BME280;70449;52.486;13.386;2023-07-30T06:24:20;100264.53;;;22.42;100.00
5356;BME280;70449;52.486;13.386;2023-07-30T06:26:47;100268.19;;;22.12;100.00
5356;BME280;70449;52.486;13.386;2023-07-30T06:29:16;100267.59;;;22.30;100.00
5356;BME280;70449;52.486;13.386;2023-07-30T06:31:44;100268.63;;;22.55;100.00
5356;BME280;70449;52.486;13.386;2023-07-30T06:34:11;100262.66;;;22.60;100.00
5356;BME280;70449;52.486;13.386;2023-07-30T06:36:39;100256.63;;;23.03;100.00
5356;BME280;70449;52.486;13.386;2023-07-30T06:39:06;100259.69;;;23.57;100.00
5356;BME280;70449;52.486;13.386;2023-07-30T06:41:33;100268.25;;;23.08;100.00
5356;BME280;70449;52.486;13.386;2023-07-30T06:44:00;100269.16;;;22.72;100.00
5356;BME280;70449;52.486;13.386;2023-07-30T06:46:29;100271.16;;;22.75;100.00
5356;BME280;70449;52.486;13.386;2023-07-30T06:48:56;100270.66;;;23.14;100.00
5356;BME280;70449;52.486;13.386;2023-07-30T06:51:24;100276.94;;;22.96;100.00
5356;BME280;70449;52.486;13.386;2023-07-30T06:53:52;100271.50;;;23.25;100.00
5356;BME280;70449;52.486;13.386;2023-07-30T06:56:19;100273.38;;;22.99;100.00
5356;BME280;70449;52.486;13.386;2023-07-30T06:58:47;100264.44;;;23.45;100.00
5356;BME280;70449;52.486;13.386;2023-07-30T07:01:15;100266.53;;;22.45;100.00
5356;BME280;70449;52.486;13.386;2023-07-30T07:03:43;100270.13;;;22.46;100.00
5356;BME280;70449;52.486;13.386;2023-07-30T07:06:10;100267.59;;;22.30;100.00
5356;BME280;70449;52.486;13.386;2023-07-30T07:08:38;100267.16;;;22.72;100.00
5356;BME280;70449;52.486;13.386;2023-07-30T07:11:05;100272.88;;;22.90;100.00
5356;BME280;70449;52.486;13.386;2023-07-30T07:13:32;100270.88;;;22.39;100.00
5356;BME280;70449;52.486;13.386;2023-07-30T07:15:59;100269.81;;;22.54;100.00
5356;BME280;70449;52.486;13.386;2023-07-30T07:18:27;100270.78;;;22.76;100.00
5356;BME280;70449;52.486;13.386;2023-07-30T07:20:55;100268.19;;;23.01;100.00
5356;BME280;70449;52.486;13.386;2023-07-30T07:23:22;100265.00;;;22.99;100.00
5356;BME280;70449;52.486;13.386;2023-07-30T07:25:50;100260.66;;;23.13;100.00
5356;BME280;70449;52.486;13.386;2023-07-30T07:28:17;100250.47;;;22.83;100.00
5356;BME280;70449;52.486;13.386;2023-07-30T07:30:44;100246.06;;;23.44;100.00
5356;BME280;70449;52.486;13.386;2023-07-30T07:33:12;100250.69;;;23.12;100.00
5356;BME280;70449;52.486;13.386;2023-07-30T07:35:39;100258.75;;;23.31;100.00
5356;BME280;70449;52.486;13.386;2023-07-30T07:38:08;100259.47;;;23.14;100.00
5356;BME280;70449;52.486;13.386;2023-07-30T07:40:37;100268.41;;;23.37;100.00
5356;BME280;70449;52.486;13.386;2023-07-30T07:43:06;100260.22;;;23.03;100.00
5356;BME280;70449;52.486;13.386;2023-07-30T07:45:33;100256.31;;;23.19;100.00
5356;BME280;70449;52.486;13.386;2023-07-30T07:48:00;100256.50;;;23.62;100.00
5356;BME280;70449;52.486;13.386;2023-07-30T07:50:28;100247.84;;;24.10;100.00
5356;BME280;70449;52.486;13.386;2023-07-30T07:52:55;100262.19;;;23.76;100.00
5356;BME280;70449;52.486;13.386;2023-07-30T07:55:24;100250.69;;;24.35;100.00
5356;BME280;70449;52.486;13.386;2023-07-30T07:57:51;100255.03;;;24.00;100.00
5356;BME280;70449;52.486;13.386;2023-07-30T08:00:19;100252.75;;;24.49;100.00
5356;BME280;70449;52.486;13.386;2023-07-30T08:02:49;100250.28;;;24.11;100.00
5356;BME280;70449;52.486;13.386;2023-07-30T08:05:16;100257.44;;;23.94;100.00
5356;BME280;70449;52.486;13.386;2023-07-30T08:07:46;100264.19;;;23.86;100.00
5356;BME280;70449;52.486;13.386;2023-07-30T08:10:13;100261.31;;;23.65;100.00
5356;BME280;70449;52.486;13.386;2023-07-30T08:12:42;100271.03;;;23.96;100.00
5356;BME280;70449;52.486;13.386;2023-07-30T08:15:10;100263.00;;;23.80;100.00
5356;BME280;70449;52.486;13.386;2023-07-30T08:17:37;100266.63;;;23.84;100.00
5356;BME280;70449;52.486;13.386;2023-07-30T08:20:06;100263.84;;;24.09;100.00
5356;BME280;70449;52.486;13.386;2023-07-30T08:22:33;100275.81;;;23.95;100.00
5356;BME280;70449;52.486;13.386;2023-07-30T08:25:01;100267.06;;;24.15;100.00
5356;BME280;70449;52.486;13.386;2023-07-30T08:27:29;100261.50;;;24.33;100.00
5356;BME280;70449;52.486;13.386;2023-07-30T08:29:58;100265.66;;;23.51;100.00
5356;BME280;70449;52.486;13.386;2023-07-30T08:32:25;100271.16;;;24.42;100.00
5356;BME280;70449;52.486;13.386;2023-07-30T08:34:53;100263.81;;;23.95;100.00
5356;BME280;70449;52.486;13.386;2023-07-30T08:37:20;100265.50;;;24.35;100.00
5356;BME280;70449;52.486;13.386;2023-07-30T08:39:47;100261.09;;;24.27;100.00
5356;BME280;70449;52.486;13.386;2023-07-30T08:42:14;100272.25;;;24.13;100.00
5356;BME280;70449;52.486;13.386;2023-07-30T08:44:42;100263.78;;;23.77;100.00
5356;BME280;70449;52.486;13.386;2023-07-30T08:47:10;100269.47;;;23.98;100.00
5356;BME280;70449;52.486;13.386;2023-07-30T08:49:37;100279.81;;;23.91;100.00
5356;BME280;70449;52.486;13.386;2023-07-30T08:52:09;100267.88;;;24.05;100.00
5356;BME280;70449;52.486;13.386;2023-07-30T08:54:38;100277.47;;;24.14;100.00
5356;BME280;70449;52.486;13.386;2023-07-30T08:57:06;100262.28;;;24.19;100.00
5356;BME280;70449;52.486;13.386;2023-07-30T08:59:42;100268.72;;;24.87;100.00
5356;BME280;70449;52.486;13.386;2023-07-30T09:02:21;100268.34;;;24.64;100.00
5356;BME280;70449;52.486;13.386;2023-07-30T09:04:54;100273.91;;;25.00;100.00
5356;BME280;70449;52.486;13.386;2023-07-30T09:07:24;100266.31;;;25.04;100.00
5356;BME280;70449;52.486;13.386;2023-07-30T09:09:51;100276.72;;;24.93;100.00
5356;BME280;70449;52.486;13.386;2023-07-30T09:12:20;100282.34;;;24.64;100.00
5356;BME280;70449;52.486;13.386;2023-07-30T09:14:52;100279.94;;;24.87;100.00
5356;BME280;70449;52.486;13.386;2023-07-30T09:17:21;100283.50;;;25.13;100.00
5356;BME280;70449;52.486;13.386;2023-07-30T09:19:49;100287.91;;;25.00;100.00
5356;BME280;70449;52.486;13.386;2023-07-30T09:22:24;100271.09;;;25.00;100.00
5356;BME280;70449;52.486;13.386;2023-07-30T09:24:51;100275.81;;;25.49;100.00
5356;BME280;70449;52.486;13.386;2023-07-30T09:27:21;100295.97;;;24.83;100.00
5356;BME280;70449;52.486;13.386;2023-07-30T09:29:52;100287.13;;;25.03;100.00
5356;BME280;70449;52.486;13.386;2023-07-30T09:32:25;100298.38;;;24.78;100.00
5356;BME280;70449;52.486;13.386;2023-07-30T09:34:53;100305.97;;;24.56;100.00
5356;BME280;70449;52.486;13.386;2023-07-30T09:37:20;100287.16;;;24.56;100.00
5356;BME280;70449;52.486;13.386;2023-07-30T09:39:48;100303.16;;;24.70;100.00
5356;BME280;70449;52.486;13.386;2023-07-30T09:42:15;100301.56;;;24.62;100.00
5356;BME280;70449;52.486;13.386;2023-07-30T09:44:42;100287.13;;;24.74;100.00
5356;BME280;70449;52.486;13.386;2023-07-30T09:47:10;100285.47;;;25.38;100.00
5356;BME280;70449;52.486;13.386;2023-07-30T09:49:38;100276.50;;;25.68;100.00
5356;BME280;70449;52.486;13.386;2023-07-30T09:52:07;100299.13;;;25.21;100.00
5356;BME280;70449;52.486;13.386;2023-07-30T09:54:34;100299.81;;;25.61;100.00
5356;BME280;70449;52.486;13.386;2023-07-30T09:57:05;100299.16;;;24.78;100.00
5356;BME280;70449;52.486;13.386;2023-07-30T09:59:32;100300.63;;;25.58;100.00
5356;BME280;70449;52.486;13.386;2023-07-30T10:02:01;100295.53;;;26.19;100.00
5356;BME280;70449;52.486;13.386;2023-07-30T10:04:30;100299.13;;;25.18;100.00
5356;BME280;70449;52.486;13.386;2023-07-30T10:07:03;100297.53;;;25.13;100.00
5356;BME280;70449;52.486;13.386;2023-07-30T10:09:39;100287.84;;;25.43;100.00
5356;BME280;70449;52.486;13.386;2023-07-30T10:12:10;100303.06;;;25.42;100.00
5356;BME280;70449;52.486;13.386;2023-07-30T10:14:38;100296.75;;;25.16;100.00
5356;BME280;70449;52.486;13.386;2023-07-30T10:17:09;100291.72;;;25.81;100.00
5356;BME280;70449;52.486;13.386;2023-07-30T10:19:38;100297.31;;;25.92;100.00
5356;BME280;70449;52.486;13.386;2023-07-30T10:22:23;100298.88;;;25.96;100.00
5356;BME280;70449;52.486;13.386;2023-07-30T10:24:58;100304.50;;;25.93;100.00
5356;BME280;70449;52.486;13.386;2023-07-30T10:27:36;100300.75;;;25.22;100.00
5356;BME280;70449;52.486;13.386;2023-07-30T10:30:10;100300.66;;;25.47;100.00
5356;BME280;70449;52.486;13.386;2023-07-30T10:32:39;100287.72;;;25.78;100.00
5356;BME280;70449;52.486;13.386;2023-07-30T10:35:07;100304.16;;;25.76;100.00
5356;BME280;70449;52.486;13.386;2023-07-30T10:37:35;100299.03;;;25.57;100.00
5356;BME280;70449;52.486;13.386;2023-07-30T10:40:18;100302.25;;;25.52;100.00
5356;BME280;70449;52.486;13.386;2023-07-30T10:42:46;100289.56;;;24.72;100.00
5356;BME280;70449;52.486;13.386;2023-07-30T10:45:15;100304.19;;;25.62;100.00
5356;BME280;70449;52.486;13.386;2023-07-30T10:47:42;100300.44;;;26.05;100.00
5356;BME280;70449;52.486;13.386;2023-07-30T10:50:10;100290.06;;;26.57;100.00
5356;BME280;70449;52.486;13.386;2023-07-30T10:52:40;100290.72;;;26.20;100.00
5356;BME280;70449;52.486;13.386;2023-07-30T10:55:08;100293.28;;;25.93;100.00
5356;BME280;70449;52.486;13.386;2023-07-30T10:57:35;100301.28;;;25.94;100.00
5356;BME280;70449;52.486;13.386;2023-07-30T11:00:07;100298.13;;;25.89;100.00
5356;BME280;70449;52.486;13.386;2023-07-30T11:02:34;100317.94;;;26.30;100.00
5356;BME280;70449;52.486;13.386;2023-07-30T11:05:12;100302.13;;;25.88;100.00
5356;BME280;70449;52.486;13.386;2023-07-30T11:07:51;100299.59;;;26.11;100.00
5356;BME280;70449;52.486;13.386;2023-07-30T11:10:18;100301.19;;;26.09;100.00
5356;BME280;70449;52.486;13.386;2023-07-30T11:12:48;100291.84;;;26.82;100.00
5356;BME280;70449;52.486;13.386;2023-07-30T11:15:16;100293.63;;;26.65;98.02
5356;BME280;70449;52.486;13.386;2023-07-30T11:17:44;100286.03;;;27.03;97.87
5356;BME280;70449;52.486;13.386;2023-07-30T11:20:24;100296.47;;;27.06;84.36
5356;BME280;70449;52.486;13.386;2023-07-30T11:22:54;100285.00;;;27.28;81.08
5356;BME280;70449;52.486;13.386;2023-07-30T11:25:21;100282.09;;;26.45;67.00
5356;BME280;70449;52.486;13.386;2023-07-30T11:27:50;100282.00;;;26.04;66.88
5356;BME280;70449;52.486;13.386;2023-07-30T11:30:20;100276.28;;;26.14;70.55
5356;BME280;70449;52.486;13.386;2023-07-30T11:32:48;100296.34;;;26.16;74.26
5356;BME280;70449;52.486;13.386;2023-07-30T11:35:16;100270.41;;;26.57;71.09
5356;BME280;70449;52.486;13.386;2023-07-30T11:37:44;100261.59;;;26.48;75.45
5356;BME280;70449;52.486;13.386;2023-07-30T11:40:13;100273.91;;;26.13;72.80
5356;BME280;70449;52.486;13.386;2023-07-30T11:42:40;100277.59;;;25.99;72.14
5356;BME280;70449;52.486;13.386;2023-07-30T11:45:20;100282.69;;;26.15;73.82
5356;BME280;70449;52.486;13.386;2023-07-30T11:47:48;100286.72;;;26.17;78.72
5356;BME280;70449;52.486;13.386;2023-07-30T11:50:16;100261.88;;;26.64;77.75
5356;BME280;70449;52.486;13.386;2023-07-30T11:52:54;100274.78;;;26.58;78.65
5356;BME280;70449;52.486;13.386;2023-07-30T11:55:23;100270.19;;;26.82;71.93
5356;BME280;70449;52.486;13.386;2023-07-30T11:58:04;100265.22;;;26.94;78.22
5356;BME280;70449;52.486;13.386;2023-07-30T12:00:31;100260.91;;;26.37;80.42
5356;BME280;70449;52.486;13.386;2023-07-30T12:03:03;100267.06;;;26.69;83.05
5356;BME280;70449;52.486;13.386;2023-07-30T12:05:35;100278.19;;;26.32;82.55
5356;BME280;70449;52.486;13.386;2023-07-30T12:08:04;100274.50;;;26.42;77.41
5356;BME280;70449;52.486;13.386;2023-07-30T12:10:45;100263.78;;;26.30;82.60
5356;BME280;70449;52.486;13.386;2023-07-30T12:13:15;100261.09;;;27.05;79.03
5356;BME280;70449;52.486;13.386;2023-07-30T12:15:46;100261.88;;;27.09;76.03
5356;BME280;70449;52.486;13.386;2023-07-30T12:18:17;100264.00;;;26.98;74.32
5356;BME280;70449;52.486;13.386;2023-07-30T12:20:44;100267.03;;;26.77;73.83
5356;BME280;70449;52.486;13.386;2023-07-30T12:23:12;100289.75;;;26.44;71.24
5356;BME280;70449;52.486;13.386;2023-07-30T12:25:39;100268.69;;;27.12;69.54
5356;BME280;70449;52.486;13.386;2023-07-30T12:28:08;100276.34;;;27.08;72.53
5356;BME280;70449;52.486;13.386;2023-07-30T12:30:35;100278.09;;;27.36;76.87
5356;BME280;70449;52.486;13.386;2023-07-30T12:33:03;100277.47;;;26.73;75.30
5356;BME280;70449;52.486;13.386;2023-07-30T12:35:32;100283.69;;;26.98;77.42
5356;BME280;70449;52.486;13.386;2023-07-30T12:38:00;100274.34;;;27.77;72.87
5356;BME280;70449;52.486;13.386;2023-07-30T12:40:27;100264.78;;;28.01;71.19
5356;BME280;70449;52.486;13.386;2023-07-30T12:43:00;100274.03;;;28.29;66.50
5356;BME280;70449;52.486;13.386;2023-07-30T12:45:31;100262.13;;;28.68;68.07